sensor_id;sensor_type;location;lat;lon;timestamp;temperature;humidity
64654;DHT22;51065;48.884;12.598;2023-02-01T00:00:19;3.60;99.90
64654;DHT22;51065;48.884;12.598;2023-02-01T00:02:44;3.60;99.90
64654;DHT22;51065;48.884;12.598;2023-02-01T00:05:10;3.60;99.90
64654;DHT22;51065;48.884;12.598;2023-02-01T00:07:37;3.60;99.90
64654;DHT22;51065;48.884;12.598;2023-02-01T00:10:04;3.70;99.90
64654;DHT22;51065;48.884;12.598;2023-02-01T00:12:30;3.60;99.90
64654;DHT22;51065;48.884;12.598;2023-02-01T00:14:56;3.60;99.90
64654;DHT22;51065;48.884;12.598;2023-02-01T00:17:22;3.60;99.90
64654;DHT22;51065;48.884;12.598;2023-02-01T00:19:47;3.60;99.90
64654;DHT22;51065;48.884;12.598;2023-02-01T00:22:13;3.60;99.90
64654;DHT22;51065;48.884;12.598;2023-02-01T00:24:38;3.70;99.90
64654;DHT22;51065;48.884;12.598;2023-02-01T00:27:04;3.70;99.90
64654;DHT22;51065;48.884;12.598;2023-02-01T00:29:29;3.70;99.90
64654;DHT22;51065;48.884;12.598;2023-02-01T00:31:55;3.70;99.90
64654;DHT22;51065;48.884;12.598;2023-02-01T00:34:20;3.70;99.90
64654;DHT22;51065;48.884;12.598;2023-02-01T00:36:46;3.70;99.90
64654;DHT22;51065;48.884;12.598;2023-02-01T00:39:12;3.70;99.90
64654;DHT22;51065;48.884;12.598;2023-02-01T00:41:38;3.70;99.90
64654;DHT22;51065;48.884;12.598;2023-02-01T00:44:04;3.70;99.90
64654;DHT22;51065;48.884;12.598;2023-02-01T00:46:30;3.70;99.90
64654;DHT22;51065;48.884;12.598;2023-02-01T00:48:55;3.80;99.90
64654;DHT22;51065;48.884;12.598;2023-02-01T00:51:24;3.80;99.90
64654;DHT22;51065;48.884;12.598;2023-02-01T00:53:50;3.80;99.90
64654;DHT22;51065;48.884;12.598;2023-02-01T00:56:16;3.80;99.90
64654;DHT22;51065;48.884;12.598;2023-02-01T00:58:42;3.80;99.90
64654;DHT22;51065;48.884;12.598;2023-02-01T01:03:38;3.80;99.90
64654;DHT22;51065;48.884;12.598;2023-02-01T01:06:07;3.80;99.90
64654;DHT22;51065;48.884;12.598;2023-02-01T01:08:34;3.80;99.90
64654;DHT22;51065;48.884;12.598;2023-02-01T01:11:04;3.80;99.90
64654;DHT22;51065;48.884;12.598;2023-02-01T01:13:30;3.80;99.90
64654;DHT22;51065;48.884;12.598;2023-02-01T01:15:55;3.80;99.90
64654;DHT22;51065;48.884;12.598;2023-02-01T01:18:21;3.80;99.90
64654;DHT22;51065;48.884;12.598;2023-02-01T01:20:47;3.80;99.90
64654;DHT22;51065;48.884;12.598;2023-02-01T01:23:13;3.80;99.90
64654;DHT22;51065;48.884;12.598;2023-02-01T01:25:39;3.90;99.90
64654;DHT22;51065;48.884;12.598;2023-02-01T01:28:05;3.90;99.90
64654;DHT22;51065;48.884;12.598;2023-02-01T01:30:32;3.90;99.90
64654;DHT22;51065;48.884;12.598;2023-02-01T01:32:58;3.90;99.90
64654;DHT22;51065;48.884;12.598;2023-02-01T01:35:24;3.90;99.90
64654;DHT22;51065;48.884;12.598;2023-02-01T01:37:49;4.00;99.90
64654;DHT22;51065;48.884;12.598;2023-02-01T01:40:15;4.00;99.90
64654;DHT22;51065;48.884;12.598;2023-02-01T01:42:42;4.00;99.90
64654;DHT22;51065;48.884;12.598;2023-02-01T01:45:30;4.00;99.90
64654;DHT22;51065;48.884;12.598;2023-02-01T01:47:58;4.00;99.90
64654;DHT22;51065;48.884;12.598;2023-02-01T01:50:30;4.00;99.90
64654;DHT22;51065;48.884;12.598;2023-02-01T01:52:58;4.00;99.90
64654;DHT22;51065;48.884;12.598;2023-02-01T01:55:28;4.10;99.90
64654;DHT22;51065;48.884;12.598;2023-02-01T01:58:00;4.10;99.90
64654;DHT22;51065;48.884;12.598;2023-02-01T02:00:27;4.10;99.90
64654;DHT22;51065;48.884;12.598;2023-02-01T02:02:58;4.10;99.90
64654;DHT22;51065;48.884;12.598;2023-02-01T02:05:24;4.10;99.90
64654;DHT22;51065;48.884;12.598;2023-02-01T02:07:52;4.20;99.90
64654;DHT22;51065;48.884;12.598;2023-02-01T02:10:19;4.10;99.90
64654;DHT22;51065;48.884;12.598;2023-02-01T02:12:46;4.10;99.90
64654;DHT22;51065;48.884;12.598;2023-02-01T02:15:14;4.10;99.90
64654;DHT22;51065;48.884;12.598;2023-02-01T02:17:55;4.10;99.90
64654;DHT22;51065;48.884;12.598;2023-02-01T02:23:36;4.20;99.90
64654;DHT22;51065;48.884;12.598;2023-02-01T02:26:34;4.10;99.90
64654;DHT22;51065;48.884;12.598;2023-02-01T02:29:12;4.20;99.90
64654;DHT22;51065;48.884;12.598;2023-02-01T02:31:58;4.10;99.90
64654;DHT22;51065;48.884;12.598;2023-02-01T02:48:48;4.10;99.90
64654;DHT22;51065;48.884;12.598;2023-02-01T02:51:27;4.00;99.90
64654;DHT22;51065;48.884;12.598;2023-02-01T02:54:17;4.10;99.90
64654;DHT22;51065;48.884;12.598;2023-02-01T02:57:06;4.00;99.90
64654;DHT22;51065;48.884;12.598;2023-02-01T02:59:53;4.00;99.90
64654;DHT22;51065;48.884;12.598;2023-02-01T03:02:38;4.00;99.90
64654;DHT22;51065;48.884;12.598;2023-02-01T03:05:22;4.00;99.90
64654;DHT22;51065;48.884;12.598;2023-02-01T03:13:16;4.10;99.90
64654;DHT22;51065;48.884;12.598;2023-02-01T03:21:14;4.10;99.90
64654;DHT22;51065;48.884;12.598;2023-02-01T03:23:41;4.10;99.90
64654;DHT22;51065;48.884;12.598;2023-02-01T03:26:11;4.10;99.90
64654;DHT22;51065;48.884;12.598;2023-02-01T03:28:43;4.00;99.90
64654;DHT22;51065;48.884;12.598;2023-02-01T03:31:10;3.90;99.90
64654;DHT22;51065;48.884;12.598;2023-02-01T03:33:36;3.80;99.90
64654;DHT22;51065;48.884;12.598;2023-02-01T03:36:15;3.80;99.90
64654;DHT22;51065;48.884;12.598;2023-02-01T03:38:51;3.80;99.90
64654;DHT22;51065;48.884;12.598;2023-02-01T03:41:18;3.80;99.90
64654;DHT22;51065;48.884;12.598;2023-02-01T03:43:57;3.90;99.90
64654;DHT22;51065;48.884;12.598;2023-02-01T03:46:38;3.90;99.90
64654;DHT22;51065;48.884;12.598;2023-02-01T03:49:09;4.00;99.90
64654;DHT22;51065;48.884;12.598;2023-02-01T03:51:38;4.00;99.90
64654;DHT22;51065;48.884;12.598;2023-02-01T03:54:07;4.00;99.90
64654;DHT22;51065;48.884;12.598;2023-02-01T03:56:36;4.00;99.90
64654;DHT22;51065;48.884;12.598;2023-02-01T03:59:03;4.10;99.90
64654;DHT22;51065;48.884;12.598;2023-02-01T04:01:29;4.00;99.90
64654;DHT22;51065;48.884;12.598;2023-02-01T04:03:56;4.00;99.90
64654;DHT22;51065;48.884;12.598;2023-02-01T04:06:23;4.00;99.90
64654;DHT22;51065;48.884;12.598;2023-02-01T04:08:49;4.00;99.90
64654;DHT22;51065;48.884;12.598;2023-02-01T04:11:15;4.00;99.90
64654;DHT22;51065;48.884;12.598;2023-02-01T04:13:40;4.00;99.90
64654;DHT22;51065;48.884;12.598;2023-02-01T04:16:06;4.10;99.90
64654;DHT22;51065;48.884;12.598;2023-02-01T04:18:31;4.10;99.90
64654;DHT22;51065;48.884;12.598;2023-02-01T04:20:57;4.10;99.90
64654;DHT22;51065;48.884;12.598;2023-02-01T04:23:23;4.10;99.90
64654;DHT22;51065;48.884;12.598;2023-02-01T04:25:48;4.10;99.90
64654;DHT22;51065;48.884;12.598;2023-02-01T04:28:13;4.10;99.90
64654;DHT22;51065;48.884;12.598;2023-02-01T04:30:39;4.10;99.90
64654;DHT22;51065;48.884;12.598;2023-02-01T04:33:05;4.20;99.90
64654;DHT22;51065;48.884;12.598;2023-02-01T04:35:30;4.20;99.90
64654;DHT22;51065;48.884;12.598;2023-02-01T04:37:56;4.20;99.90
64654;DHT22;51065;48.884;12.598;2023-02-01T04:40:22;4.20;99.90
64654;DHT22;51065;48.884;12.598;2023-02-01T04:42:47;4.10;99.90
64654;DHT22;51065;48.884;12.598;2023-02-01T04:45:13;4.10;99.90
64654;DHT22;51065;48.884;12.598;2023-02-01T04:47:38;4.10;99.90
64654;DHT22;51065;48.884;12.598;2023-02-01T04:50:04;4.20;99.90
64654;DHT22;51065;48.884;12.598;2023-02-01T04:52:31;4.20;99.90
64654;DHT22;51065;48.884;12.598;2023-02-01T04:54:57;4.20;99.90
64654;DHT22;51065;48.884;12.598;2023-02-01T04:57:25;4.20;99.90
64654;DHT22;51065;48.884;12.598;2023-02-01T04:59:50;4.20;99.90
64654;DHT22;51065;48.884;12.598;2023-02-01T05:02:16;4.20;99.90
64654;DHT22;51065;48.884;12.598;2023-02-01T05:04:41;4.20;99.90
64654;DHT22;51065;48.884;12.598;2023-02-01T05:07:07;4.20;99.90
64654;DHT22;51065;48.884;12.598;2023-02-01T05:09:32;4.20;99.90
64654;DHT22;51065;48.884;12.598;2023-02-01T05:11:58;4.10;99.90
64654;DHT22;51065;48.884;12.598;2023-02-01T05:14:42;4.10;99.90
64654;DHT22;51065;48.884;12.598;2023-02-01T05:17:07;4.10;99.90
64654;DHT22;51065;48.884;12.598;2023-02-01T05:19:33;4.10;99.90
64654;DHT22;51065;48.884;12.598;2023-02-01T05:21:58;4.10;99.90
64654;DHT22;51065;48.884;12.598;2023-02-01T05:24:24;4.10;99.90
64654;DHT22;51065;48.884;12.598;2023-02-01T05:26:50;4.10;99.90
64654;DHT22;51065;48.884;12.598;2023-02-01T05:29:16;4.10;99.90
64654;DHT22;51065;48.884;12.598;2023-02-01T05:31:44;4.10;99.90
64654;DHT22;51065;48.884;12.598;2023-02-01T05:34:10;4.10;99.90
64654;DHT22;51065;48.884;12.598;2023-02-01T05:36:36;4.10;99.90
64654;DHT22;51065;48.884;12.598;2023-02-01T05:39:02;4.00;99.90
64654;DHT22;51065;48.884;12.598;2023-02-01T05:41:28;4.10;99.90
64654;DHT22;51065;48.884;12.598;2023-02-01T05:43:53;4.10;99.90
64654;DHT22;51065;48.884;12.598;2023-02-01T05:46:19;4.10;99.90
64654;DHT22;51065;48.884;12.598;2023-02-01T05:48:44;4.10;99.90
64654;DHT22;51065;48.884;12.598;2023-02-01T05:51:10;4.10;99.90
64654;DHT22;51065;48.884;12.598;2023-02-01T05:53:36;4.10;99.90
64654;DHT22;51065;48.884;12.598;2023-02-01T05:56:02;4.10;99.90
64654;DHT22;51065;48.884;12.598;2023-02-01T05:58:29;4.10;99.90
64654;DHT22;51065;48.884;12.598;2023-02-01T06:00:55;4.10;99.90
64654;DHT22;51065;48.884;12.598;2023-02-01T06:03:20;4.10;99.90
64654;DHT22;51065;48.884;12.598;2023-02-01T06:05:47;4.10;99.90
64654;DHT22;51065;48.884;12.598;2023-02-01T06:08:13;4.00;99.90
64654;DHT22;51065;48.884;12.598;2023-02-01T06:10:39;4.00;99.90
64654;DHT22;51065;48.884;12.598;2023-02-01T06:13:04;4.00;99.90
64654;DHT22;51065;48.884;12.598;2023-02-01T06:15:30;4.10;99.90
64654;DHT22;51065;48.884;12.598;2023-02-01T06:17:56;4.00;99.90
64654;DHT22;51065;48.884;12.598;2023-02-01T06:20:22;4.10;99.90
64654;DHT22;51065;48.884;12.598;2023-02-01T06:22:48;4.00;99.90
64654;DHT22;51065;48.884;12.598;2023-02-01T06:25:14;4.10;99.90
64654;DHT22;51065;48.884;12.598;2023-02-01T06:27:39;4.10;99.90
64654;DHT22;51065;48.884;12.598;2023-02-01T06:30:06;4.00;99.90
64654;DHT22;51065;48.884;12.598;2023-02-01T06:32:32;4.00;99.90
64654;DHT22;51065;48.884;12.598;2023-02-01T06:34:57;3.90;99.90
64654;DHT22;51065;48.884;12.598;2023-02-01T06:37:24;3.90;99.90
64654;DHT22;51065;48.884;12.598;2023-02-01T06:39:51;3.80;99.90
64654;DHT22;51065;48.884;12.598;2023-02-01T06:42:17;3.80;99.90
64654;DHT22;51065;48.884;12.598;2023-02-01T06:44:42;3.70;99.90
64654;DHT22;51065;48.884;12.598;2023-02-01T06:47:08;3.60;99.90
64654;DHT22;51065;48.884;12.598;2023-02-01T06:49:33;3.50;99.90
64654;DHT22;51065;48.884;12.598;2023-02-01T06:51:59;3.40;99.90
64654;DHT22;51065;48.884;12.598;2023-02-01T06:54:28;3.30;99.90
64654;DHT22;51065;48.884;12.598;2023-02-01T06:56:53;3.30;99.90
64654;DHT22;51065;48.884;12.598;2023-02-01T06:59:19;3.30;99.90
64654;DHT22;51065;48.884;12.598;2023-02-01T07:01:45;3.30;99.90
64654;DHT22;51065;48.884;12.598;2023-02-01T07:04:11;3.30;99.90
64654;DHT22;51065;48.884;12.598;2023-02-01T07:06:38;3.30;99.90
64654;DHT22;51065;48.884;12.598;2023-02-01T07:09:03;3.40;99.90
64654;DHT22;51065;48.884;12.598;2023-02-01T07:11:29;3.40;99.90
64654;DHT22;51065;48.884;12.598;2023-02-01T07:13:55;3.50;99.90
64654;DHT22;51065;48.884;12.598;2023-02-01T07:16:21;3.60;99.90
64654;DHT22;51065;48.884;12.598;2023-02-01T07:18:49;3.70;99.90
64654;DHT22;51065;48.884;12.598;2023-02-01T07:21:15;3.80;99.90
64654;DHT22;51065;48.884;12.598;2023-02-01T07:23:41;3.90;99.90
64654;DHT22;51065;48.884;12.598;2023-02-01T07:26:08;4.00;99.90
64654;DHT22;51065;48.884;12.598;2023-02-01T07:28:35;4.20;99.90
64654;DHT22;51065;48.884;12.598;2023-02-01T07:31:10;4.30;99.90
64654;DHT22;51065;48.884;12.598;2023-02-01T07:33:36;4.40;99.90
64654;DHT22;51065;48.884;12.598;2023-02-01T07:36:04;4.40;99.90
64654;DHT22;51065;48.884;12.598;2023-02-01T07:38:30;4.40;99.90
64654;DHT22;51065;48.884;12.598;2023-02-01T07:41:00;4.40;99.90
64654;DHT22;51065;48.884;12.598;2023-02-01T07:43:26;4.40;99.90
64654;DHT22;51065;48.884;12.598;2023-02-01T07:45:54;4.40;99.90
64654;DHT22;51065;48.884;12.598;2023-02-01T07:48:20;4.50;99.90
64654;DHT22;51065;48.884;12.598;2023-02-01T07:50:46;4.50;99.90
64654;DHT22;51065;48.884;12.598;2023-02-01T07:53:11;4.50;99.90
64654;DHT22;51065;48.884;12.598;2023-02-01T07:55:38;4.50;99.90
64654;DHT22;51065;48.884;12.598;2023-02-01T07:58:03;4.50;99.90
64654;DHT22;51065;48.884;12.598;2023-02-01T08:00:29;4.50;99.90
64654;DHT22;51065;48.884;12.598;2023-02-01T08:03:13;4.40;99.90
64654;DHT22;51065;48.884;12.598;2023-02-01T08:05:39;4.40;99.90
64654;DHT22;51065;48.884;12.598;2023-02-01T08:08:05;4.20;99.90
64654;DHT22;51065;48.884;12.598;2023-02-01T08:10:30;3.50;99.90
64654;DHT22;51065;48.884;12.598;2023-02-01T08:12:59;2.90;99.90
64654;DHT22;51065;48.884;12.598;2023-02-01T08:15:26;2.60;99.90
64654;DHT22;51065;48.884;12.598;2023-02-01T08:17:53;2.40;99.90
64654;DHT22;51065;48.884;12.598;2023-02-01T08:20:20;2.40;99.90
64654;DHT22;51065;48.884;12.598;2023-02-01T08:22:52;2.40;99.90
64654;DHT22;51065;48.884;12.598;2023-02-01T08:25:17;2.40;99.90
64654;DHT22;51065;48.884;12.598;2023-02-01T08:27:43;2.40;99.90
64654;DHT22;51065;48.884;12.598;2023-02-01T08:30:10;2.40;99.90
64654;DHT22;51065;48.884;12.598;2023-02-01T08:32:36;2.50;99.90
64654;DHT22;51065;48.884;12.598;2023-02-01T08:35:02;2.50;99.90
64654;DHT22;51065;48.884;12.598;2023-02-01T08:37:29;2.60;99.90
64654;DHT22;51065;48.884;12.598;2023-02-01T08:39:54;2.70;99.90
64654;DHT22;51065;48.884;12.598;2023-02-01T08:42:20;2.70;99.90
64654;DHT22;51065;48.884;12.598;2023-02-01T08:45:04;2.70;99.90
64654;DHT22;51065;48.884;12.598;2023-02-01T08:47:31;2.70;99.90
64654;DHT22;51065;48.884;12.598;2023-02-01T08:49:56;2.80;99.90
64654;DHT22;51065;48.884;12.598;2023-02-01T08:52:22;2.90;99.90
64654;DHT22;51065;48.884;12.598;2023-02-01T08:54:47;2.90;99.90
64654;DHT22;51065;48.884;12.598;2023-02-01T08:57:13;3.00;99.90
64654;DHT22;51065;48.884;12.598;2023-02-01T08:59:38;3.10;99.90
64654;DHT22;51065;48.884;12.598;2023-02-01T09:02:04;3.10;99.90
64654;DHT22;51065;48.884;12.598;2023-02-01T09:04:30;3.20;99.90
64654;DHT22;51065;48.884;12.598;2023-02-01T09:06:55;3.20;99.90
64654;DHT22;51065;48.884;12.598;2023-02-01T09:09:24;3.30;99.90
64654;DHT22;51065;48.884;12.598;2023-02-01T09:11:49;3.30;99.90
64654;DHT22;51065;48.884;12.598;2023-02-01T09:14:18;3.30;99.90
64654;DHT22;51065;48.884;12.598;2023-02-01T09:16:43;3.30;99.90
64654;DHT22;51065;48.884;12.598;2023-02-01T09:19:09;3.40;99.90
64654;DHT22;51065;48.884;12.598;2023-02-01T09:21:35;3.40;99.90
64654;DHT22;51065;48.884;12.598;2023-02-01T09:24:01;3.50;99.90
64654;DHT22;51065;48.884;12.598;2023-02-01T09:26:27;3.50;99.90
64654;DHT22;51065;48.884;12.598;2023-02-01T09:28:52;3.60;99.90
64654;DHT22;51065;48.884;12.598;2023-02-01T09:31:19;3.60;99.90
64654;DHT22;51065;48.884;12.598;2023-02-01T09:33:44;3.70;99.90
64654;DHT22;51065;48.884;12.598;2023-02-01T09:36:10;3.60;99.90
64654;DHT22;51065;48.884;12.598;2023-02-01T09:38:36;3.70;99.90
64654;DHT22;51065;48.884;12.598;2023-02-01T09:41:07;3.70;99.90
64654;DHT22;51065;48.884;12.598;2023-02-01T09:46:26;3.70;99.90
64654;DHT22;51065;48.884;12.598;2023-02-01T09:48:57;3.70;99.90
64654;DHT22;51065;48.884;12.598;2023-02-01T09:51:31;3.70;99.90
64654;DHT22;51065;48.884;12.598;2023-02-01T09:54:17;3.70;99.90
64654;DHT22;51065;48.884;12.598;2023-02-01T09:56:49;3.70;99.90
64654;DHT22;51065;48.884;12.598;2023-02-01T09:59:39;3.70;99.90
64654;DHT22;51065;48.884;12.598;2023-02-01T10:02:14;3.60;99.90
64654;DHT22;51065;48.884;12.598;2023-02-01T10:04:41;3.60;99.90
64654;DHT22;51065;48.884;12.598;2023-02-01T10:07:27;3.70;99.90
64654;DHT22;51065;48.884;12.598;2023-02-01T10:10:15;3.70;99.90
64654;DHT22;51065;48.884;12.598;2023-02-01T10:13:36;3.80;99.90
64654;DHT22;51065;48.884;12.598;2023-02-01T10:16:21;3.80;99.90
64654;DHT22;51065;48.884;12.598;2023-02-01T10:19:16;3.80;99.90
64654;DHT22;51065;48.884;12.598;2023-02-01T10:22:04;3.80;99.90
64654;DHT22;51065;48.884;12.598;2023-02-01T10:24:41;3.90;99.90
64654;DHT22;51065;48.884;12.598;2023-02-01T10:27:14;3.90;99.90
64654;DHT22;51065;48.884;12.598;2023-02-01T10:29:44;3.90;99.90
64654;DHT22;51065;48.884;12.598;2023-02-01T10:32:17;3.80;99.90
64654;DHT22;51065;48.884;12.598;2023-02-01T10:34:48;3.80;99.90
64654;DHT22;51065;48.884;12.598;2023-02-01T10:37:31;3.80;99.90
64654;DHT22;51065;48.884;12.598;2023-02-01T10:40:00;3.80;99.90
64654;DHT22;51065;48.884;12.598;2023-02-01T10:42:27;3.80;99.90
64654;DHT22;51065;48.884;12.598;2023-02-01T10:44:58;3.80;99.90
64654;DHT22;51065;48.884;12.598;2023-02-01T10:47:25;3.80;99.90
64654;DHT22;51065;48.884;12.598;2023-02-01T10:52:50;3.70;99.90
64654;DHT22;51065;48.884;12.598;2023-02-01T10:55:28;3.80;99.90
64654;DHT22;51065;48.884;12.598;2023-02-01T10:57:59;3.90;99.90
64654;DHT22;51065;48.884;12.598;2023-02-01T11:00:25;4.00;99.90
64654;DHT22;51065;48.884;12.598;2023-02-01T11:02:52;4.10;99.90
64654;DHT22;51065;48.884;12.598;2023-02-01T11:05:18;4.20;99.90
64654;DHT22;51065;48.884;12.598;2023-02-01T11:07:55;4.20;99.90
64654;DHT22;51065;48.884;12.598;2023-02-01T11:10:43;4.40;99.90
64654;DHT22;51065;48.884;12.598;2023-02-01T11:13:17;4.50;99.90
64654;DHT22;51065;48.884;12.598;2023-02-01T11:15:55;4.50;99.90
64654;DHT22;51065;48.884;12.598;2023-02-01T11:18:27;4.60;99.90
64654;DHT22;51065;48.884;12.598;2023-02-01T11:20:53;4.70;99.90
64654;DHT22;51065;48.884;12.598;2023-02-01T11:23:23;4.80;99.90
64654;DHT22;51065;48.884;12.598;2023-02-01T11:25:54;4.80;99.90
64654;DHT22;51065;48.884;12.598;2023-02-01T11:28:23;4.90;99.90
64654;DHT22;51065;48.884;12.598;2023-02-01T11:30:51;4.90;99.90
64654;DHT22;51065;48.884;12.598;2023-02-01T11:33:20;4.80;99.90
64654;DHT22;51065;48.884;12.598;2023-02-01T11:35:47;4.60;99.90
64654;DHT22;51065;48.884;12.598;2023-02-01T11:40:50;4.00;99.90
64654;DHT22;51065;48.884;12.598;2023-02-01T11:43:24;3.80;99.90
64654;DHT22;51065;48.884;12.598;2023-02-01T11:45:57;3.80;99.90
64654;DHT22;51065;48.884;12.598;2023-02-01T11:48:24;3.70;99.90
64654;DHT22;51065;48.884;12.598;2023-02-01T11:53:35;3.90;99.90
64654;DHT22;51065;48.884;12.598;2023-02-01T12:01:29;4.10;99.90
64654;DHT22;51065;48.884;12.598;2023-02-01T12:07:20;4.20;99.90
64654;DHT22;51065;48.884;12.598;2023-02-01T12:12:52;4.30;99.90
64654;DHT22;51065;48.884;12.598;2023-02-01T12:15:56;4.40;99.90
64654;DHT22;51065;48.884;12.598;2023-02-01T12:21:36;4.50;99.90
64654;DHT22;51065;48.884;12.598;2023-02-01T12:36:07;5.30;99.90
64654;DHT22;51065;48.884;12.598;2023-02-01T12:38:53;5.50;99.90
64654;DHT22;51065;48.884;12.598;2023-02-01T12:44:11;5.90;99.90
64654;DHT22;51065;48.884;12.598;2023-02-01T12:46:46;6.10;99.90
64654;DHT22;51065;48.884;12.598;2023-02-01T12:52:02;6.30;99.90
64654;DHT22;51065;48.884;12.598;2023-02-01T12:54:50;6.40;99.90
64654;DHT22;51065;48.884;12.598;2023-02-01T12:57:26;6.40;99.90
64654;DHT22;51065;48.884;12.598;2023-02-01T13:00:01;6.40;99.90
64654;DHT22;51065;48.884;12.598;2023-02-01T13:05:27;6.10;99.90
64654;DHT22;51065;48.884;12.598;2023-02-01T13:08:00;5.90;99.90
64654;DHT22;51065;48.884;12.598;2023-02-01T13:10:49;5.70;99.90
64654;DHT22;51065;48.884;12.598;2023-02-01T13:13:25;5.50;99.90
64654;DHT22;51065;48.884;12.598;2023-02-01T13:16:01;5.20;99.90
64654;DHT22;51065;48.884;12.598;2023-02-01T13:18:34;5.00;99.90
64654;DHT22;51065;48.884;12.598;2023-02-01T13:21:06;4.70;99.90
64654;DHT22;51065;48.884;12.598;2023-02-01T13:23:38;4.50;99.90
64654;DHT22;51065;48.884;12.598;2023-02-01T13:26:05;4.40;99.90
64654;DHT22;51065;48.884;12.598;2023-02-01T13:28:53;4.30;99.90
64654;DHT22;51065;48.884;12.598;2023-02-01T13:31:58;4.20;99.90
64654;DHT22;51065;48.884;12.598;2023-02-01T13:43:16;3.80;99.90
64654;DHT22;51065;48.884;12.598;2023-02-01T13:45:49;3.70;99.90
64654;DHT22;51065;48.884;12.598;2023-02-01T13:48:26;3.70;99.90
64654;DHT22;51065;48.884;12.598;2023-02-01T13:50:56;3.70;99.90
64654;DHT22;51065;48.884;12.598;2023-02-01T13:53:30;3.70;99.90
64654;DHT22;51065;48.884;12.598;2023-02-01T13:58:34;3.70;99.90
64654;DHT22;51065;48.884;12.598;2023-02-01T14:03:55;3.80;99.90
64654;DHT22;51065;48.884;12.598;2023-02-01T14:19:25;4.00;99.90
64654;DHT22;51065;48.884;12.598;2023-02-01T14:21:58;4.00;99.90
64654;DHT22;51065;48.884;12.598;2023-02-01T14:26:55;4.00;99.90
64654;DHT22;51065;48.884;12.598;2023-02-01T14:29:26;4.10;99.90
64654;DHT22;51065;48.884;12.598;2023-02-01T14:31:58;4.10;99.90
64654;DHT22;51065;48.884;12.598;2023-02-01T14:34:37;4.10;99.90
64654;DHT22;51065;48.884;12.598;2023-02-01T14:40:03;4.20;99.90
64654;DHT22;51065;48.884;12.598;2023-02-01T14:47:47;4.50;99.90
64654;DHT22;51065;48.884;12.598;2023-02-01T14:58:35;4.60;99.90
64654;DHT22;51065;48.884;12.598;2023-02-01T15:01:05;4.60;99.90
64654;DHT22;51065;48.884;12.598;2023-02-01T15:03:43;4.60;99.90
64654;DHT22;51065;48.884;12.598;2023-02-01T15:06:24;4.60;99.90
64654;DHT22;51065;48.884;12.598;2023-02-01T15:08:54;4.60;99.90
64654;DHT22;51065;48.884;12.598;2023-02-01T15:11:21;4.60;99.90
64654;DHT22;51065;48.884;12.598;2023-02-01T15:13:51;4.60;99.90
64654;DHT22;51065;48.884;12.598;2023-02-01T15:16:20;4.70;99.90
64654;DHT22;51065;48.884;12.598;2023-02-01T15:18:48;4.70;99.90
64654;DHT22;51065;48.884;12.598;2023-02-01T15:21:20;4.70;99.90
64654;DHT22;51065;48.884;12.598;2023-02-01T15:23:46;4.70;99.90
64654;DHT22;51065;48.884;12.598;2023-02-01T15:26:34;4.70;99.90
64654;DHT22;51065;48.884;12.598;2023-02-01T15:29:00;4.70;99.90
64654;DHT22;51065;48.884;12.598;2023-02-01T15:31:45;4.70;99.90
64654;DHT22;51065;48.884;12.598;2023-02-01T15:34:12;4.70;99.90
64654;DHT22;51065;48.884;12.598;2023-02-01T15:36:38;4.70;99.90
64654;DHT22;51065;48.884;12.598;2023-02-01T15:39:22;4.70;99.90
64654;DHT22;51065;48.884;12.598;2023-02-01T15:41:54;4.60;99.90
64654;DHT22;51065;48.884;12.598;2023-02-01T15:44:21;4.60;99.90
64654;DHT22;51065;48.884;12.598;2023-02-01T15:46:50;4.50;99.90
64654;DHT22;51065;48.884;12.598;2023-02-01T15:49:36;4.50;99.90
64654;DHT22;51065;48.884;12.598;2023-02-01T15:52:03;4.50;99.90
64654;DHT22;51065;48.884;12.598;2023-02-01T15:54:49;4.50;99.90
64654;DHT22;51065;48.884;12.598;2023-02-01T15:57:24;4.50;99.90
64654;DHT22;51065;48.884;12.598;2023-02-01T16:00:06;4.50;99.90
64654;DHT22;51065;48.884;12.598;2023-02-01T16:02:50;4.50;99.90
64654;DHT22;51065;48.884;12.598;2023-02-01T16:05:32;4.50;99.90
64654;DHT22;51065;48.884;12.598;2023-02-01T16:08:06;4.50;99.90
64654;DHT22;51065;48.884;12.598;2023-02-01T16:10:41;4.50;99.90
64654;DHT22;51065;48.884;12.598;2023-02-01T16:13:07;4.40;99.90
64654;DHT22;51065;48.884;12.598;2023-02-01T16:15:33;4.60;99.90
64654;DHT22;51065;48.884;12.598;2023-02-01T16:17:59;4.70;99.90
64654;DHT22;51065;48.884;12.598;2023-02-01T16:20:24;4.70;99.90
64654;DHT22;51065;48.884;12.598;2023-02-01T16:22:50;4.70;99.90
64654;DHT22;51065;48.884;12.598;2023-02-01T16:25:16;4.70;99.90
64654;DHT22;51065;48.884;12.598;2023-02-01T16:27:41;4.70;99.90
64654;DHT22;51065;48.884;12.598;2023-02-01T16:30:07;4.70;99.90
64654;DHT22;51065;48.884;12.598;2023-02-01T16:32:35;4.70;99.90
64654;DHT22;51065;48.884;12.598;2023-02-01T16:35:14;4.70;99.90
64654;DHT22;51065;48.884;12.598;2023-02-01T16:37:44;4.70;99.90
64654;DHT22;51065;48.884;12.598;2023-02-01T16:40:16;4.70;99.90
64654;DHT22;51065;48.884;12.598;2023-02-01T16:42:42;4.80;99.90
64654;DHT22;51065;48.884;12.598;2023-02-01T16:45:09;4.80;99.90
64654;DHT22;51065;48.884;12.598;2023-02-01T16:47:37;4.80;99.90
64654;DHT22;51065;48.884;12.598;2023-02-01T16:50:03;4.80;99.90
64654;DHT22;51065;48.884;12.598;2023-02-01T16:52:29;4.80;99.90
64654;DHT22;51065;48.884;12.598;2023-02-01T16:54:54;4.80;99.90
64654;DHT22;51065;48.884;12.598;2023-02-01T16:57:20;4.80;99.90
64654;DHT22;51065;48.884;12.598;2023-02-01T16:59:49;4.70;99.90
64654;DHT22;51065;48.884;12.598;2023-02-01T17:02:17;4.70;99.90
64654;DHT22;51065;48.884;12.598;2023-02-01T17:04:47;4.70;99.90
64654;DHT22;51065;48.884;12.598;2023-02-01T17:07:18;4.70;99.90
64654;DHT22;51065;48.884;12.598;2023-02-01T17:09:44;4.80;99.90
64654;DHT22;51065;48.884;12.598;2023-02-01T17:12:23;4.80;99.90
64654;DHT22;51065;48.884;12.598;2023-02-01T17:14:50;4.70;99.90
64654;DHT22;51065;48.884;12.598;2023-02-01T17:17:16;4.80;99.90
64654;DHT22;51065;48.884;12.598;2023-02-01T17:19:42;4.70;99.90
64654;DHT22;51065;48.884;12.598;2023-02-01T17:22:08;4.80;99.90
64654;DHT22;51065;48.884;12.598;2023-02-01T17:24:34;4.80;99.90
64654;DHT22;51065;48.884;12.598;2023-02-01T17:26:59;4.90;99.90
64654;DHT22;51065;48.884;12.598;2023-02-01T17:29:25;4.80;99.90
64654;DHT22;51065;48.884;12.598;2023-02-01T17:31:55;4.80;99.90
64654;DHT22;51065;48.884;12.598;2023-02-01T17:34:21;4.90;99.90
64654;DHT22;51065;48.884;12.598;2023-02-01T17:36:48;4.90;99.90
64654;DHT22;51065;48.884;12.598;2023-02-01T17:39:16;4.90;99.90
64654;DHT22;51065;48.884;12.598;2023-02-01T17:42:02;4.90;99.90
64654;DHT22;51065;48.884;12.598;2023-02-01T17:44:27;4.90;99.90
64654;DHT22;51065;48.884;12.598;2023-02-01T17:46:53;4.90;99.90
64654;DHT22;51065;48.884;12.598;2023-02-01T17:49:20;4.90;99.90